sensor_id;sensor_type;location;lat;lon;timestamp;P1;durP1;ratioP1;P2;durP2;ratioP2
19221;SDS011;9745;50.828;4.378;2023-06-10T00:01:31;6.87;;;6.10;;
19221;SDS011;9745;50.828;4.378;2023-06-10T00:03:59;15.17;;;6.33;;
19221;SDS011;9745;50.828;4.378;2023-06-10T00:06:25;7.20;;;6.50;;
19221;SDS011;9745;50.828;4.378;2023-06-10T00:08:51;7.73;;;6.17;;
19221;SDS011;9745;50.828;4.378;2023-06-10T00:11:17;7.40;;;6.50;;
19221;SDS011;9745;50.828;4.378;2023-06-10T00:13:43;8.50;;;6.33;;
19221;SDS011;9745;50.828;4.378;2023-06-10T00:16:09;6.93;;;6.23;;
19221;SDS011;9745;50.828;4.378;2023-06-10T00:18:35;8.53;;;6.50;;
19221;SDS011;9745;50.828;4.378;2023-06-10T00:21:03;8.67;;;6.50;;
19221;SDS011;9745;50.828;4.378;2023-06-10T00:23:30;10.40;;;6.27;;
19221;SDS011;9745;50.828;4.378;2023-06-10T00:25:58;7.73;;;6.70;;
19221;SDS011;9745;50.828;4.378;2023-06-10T00:28:24;12.43;;;6.97;;
19221;SDS011;9745;50.828;4.378;2023-06-10T00:30:51;6.83;;;6.23;;
19221;SDS011;9745;50.828;4.378;2023-06-10T00:33:17;9.60;;;6.60;;
19221;SDS011;9745;50.828;4.378;2023-06-10T00:35:43;7.03;;;6.33;;
19221;SDS011;9745;50.828;4.378;2023-06-10T00:38:09;8.43;;;6.73;;
19221;SDS011;9745;50.828;4.378;2023-06-10T00:40:41;9.13;;;6.60;;
19221;SDS011;9745;50.828;4.378;2023-06-10T00:43:07;10.77;;;6.27;;
19221;SDS011;9745;50.828;4.378;2023-06-10T00:45:33;11.47;;;7.17;;
19221;SDS011;9745;50.828;4.378;2023-06-10T00:47:59;11.30;;;6.50;;
19221;SDS011;9745;50.828;4.378;2023-06-10T00:50:26;8.43;;;6.33;;
19221;SDS011;9745;50.828;4.378;2023-06-10T00:52:54;8.40;;;6.23;;
19221;SDS011;9745;50.828;4.378;2023-06-10T00:55:20;8.13;;;6.50;;
19221;SDS011;9745;50.828;4.378;2023-06-10T00:57:47;10.03;;;6.53;;
19221;SDS011;9745;50.828;4.378;2023-06-10T01:00:14;7.17;;;6.27;;
19221;SDS011;9745;50.828;4.378;2023-06-10T01:02:41;11.37;;;6.87;;
19221;SDS011;9745;50.828;4.378;2023-06-10T01:05:07;9.27;;;6.30;;
19221;SDS011;9745;50.828;4.378;2023-06-10T01:12:29;9.90;;;6.87;;
19221;SDS011;9745;50.828;4.378;2023-06-10T01:14:57;9.17;;;7.10;;
19221;SDS011;9745;50.828;4.378;2023-06-10T01:17:23;12.37;;;7.07;;
19221;SDS011;9745;50.828;4.378;2023-06-10T01:19:55;8.60;;;6.50;;
19221;SDS011;9745;50.828;4.378;2023-06-10T01:22:22;7.60;;;6.60;;
19221;SDS011;9745;50.828;4.378;2023-06-10T01:24:48;7.60;;;6.87;;
19221;SDS011;9745;50.828;4.378;2023-06-10T01:27:15;9.20;;;6.80;;
19221;SDS011;9745;50.828;4.378;2023-06-10T01:29:45;14.47;;;6.43;;
19221;SDS011;9745;50.828;4.378;2023-06-10T01:34:58;10.97;;;6.90;;
19221;SDS011;9745;50.828;4.378;2023-06-10T01:37:25;9.97;;;6.67;;
19221;SDS011;9745;50.828;4.378;2023-06-10T01:39:52;8.93;;;6.27;;
19221;SDS011;9745;50.828;4.378;2023-06-10T01:42:20;9.83;;;6.50;;
19221;SDS011;9745;50.828;4.378;2023-06-10T01:44:46;9.00;;;6.13;;
19221;SDS011;9745;50.828;4.378;2023-06-10T01:47:12;9.33;;;7.43;;
19221;SDS011;9745;50.828;4.378;2023-06-10T01:49:38;10.47;;;7.23;;
19221;SDS011;9745;50.828;4.378;2023-06-10T01:52:04;11.47;;;6.90;;
19221;SDS011;9745;50.828;4.378;2023-06-10T01:54:30;7.83;;;6.73;;
19221;SDS011;9745;50.828;4.378;2023-06-10T01:56:56;9.13;;;6.70;;
19221;SDS011;9745;50.828;4.378;2023-06-10T01:59:22;8.10;;;6.87;;
19221;SDS011;9745;50.828;4.378;2023-06-10T02:01:48;8.57;;;6.57;;
19221;SDS011;9745;50.828;4.378;2023-06-10T02:04:14;8.97;;;6.70;;
19221;SDS011;9745;50.828;4.378;2023-06-10T02:06:41;7.60;;;6.47;;
19221;SDS011;9745;50.828;4.378;2023-06-10T02:09:07;8.30;;;6.57;;
19221;SDS011;9745;50.828;4.378;2023-06-10T02:11:33;7.47;;;6.60;;
19221;SDS011;9745;50.828;4.378;2023-06-10T02:13:59;8.27;;;6.20;;
19221;SDS011;9745;50.828;4.378;2023-06-10T02:16:25;9.53;;;6.30;;
19221;SDS011;9745;50.828;4.378;2023-06-10T02:18:51;8.40;;;6.40;;
19221;SDS011;9745;50.828;4.378;2023-06-10T02:21:17;9.07;;;6.57;;
19221;SDS011;9745;50.828;4.378;2023-06-10T02:23:43;11.20;;;6.80;;
19221;SDS011;9745;50.828;4.378;2023-06-10T02:26:09;12.57;;;6.33;;
19221;SDS011;9745;50.828;4.378;2023-06-10T02:28:35;9.60;;;6.60;;
19221;SDS011;9745;50.828;4.378;2023-06-10T02:31:01;11.23;;;7.17;;
19221;SDS011;9745;50.828;4.378;2023-06-10T02:33:27;8.27;;;6.70;;
19221;SDS011;9745;50.828;4.378;2023-06-10T02:35:53;8.53;;;6.53;;
19221;SDS011;9745;50.828;4.378;2023-06-10T02:38:19;13.03;;;7.63;;
19221;SDS011;9745;50.828;4.378;2023-06-10T02:40:45;8.63;;;7.07;;
19221;SDS011;9745;50.828;4.378;2023-06-10T02:43:11;7.97;;;7.13;;
19221;SDS011;9745;50.828;4.378;2023-06-10T02:45:37;8.67;;;6.93;;
19221;SDS011;9745;50.828;4.378;2023-06-10T02:48:03;8.13;;;6.73;;
19221;SDS011;9745;50.828;4.378;2023-06-10T02:50:30;12.93;;;7.57;;
19221;SDS011;9745;50.828;4.378;2023-06-10T02:52:56;11.47;;;7.40;;
19221;SDS011;9745;50.828;4.378;2023-06-10T02:55:22;9.23;;;7.33;;
19221;SDS011;9745;50.828;4.378;2023-06-10T02:57:51;8.10;;;6.77;;
19221;SDS011;9745;50.828;4.378;2023-06-10T03:00:17;12.03;;;6.97;;
19221;SDS011;9745;50.828;4.378;2023-06-10T03:02:45;8.50;;;6.63;;
19221;SDS011;9745;50.828;4.378;2023-06-10T03:05:11;10.30;;;7.07;;
19221;SDS011;9745;50.828;4.378;2023-06-10T03:07:38;10.07;;;6.07;;
19221;SDS011;9745;50.828;4.378;2023-06-10T03:10:04;12.27;;;7.30;;
19221;SDS011;9745;50.828;4.378;2023-06-10T03:12:30;10.20;;;7.00;;
19221;SDS011;9745;50.828;4.378;2023-06-10T03:14:56;10.47;;;6.83;;
19221;SDS011;9745;50.828;4.378;2023-06-10T03:17:23;8.87;;;6.97;;
19221;SDS011;9745;50.828;4.378;2023-06-10T03:19:49;8.13;;;7.20;;
19221;SDS011;9745;50.828;4.378;2023-06-10T03:22:15;11.80;;;7.63;;
19221;SDS011;9745;50.828;4.378;2023-06-10T03:24:41;10.30;;;7.80;;
19221;SDS011;9745;50.828;4.378;2023-06-10T03:27:11;9.40;;;7.87;;
19221;SDS011;9745;50.828;4.378;2023-06-10T03:29:38;11.33;;;7.57;;
19221;SDS011;9745;50.828;4.378;2023-06-10T03:32:04;8.77;;;7.33;;
19221;SDS011;9745;50.828;4.378;2023-06-10T03:34:31;9.10;;;7.50;;
19221;SDS011;9745;50.828;4.378;2023-06-10T03:36:57;12.50;;;7.27;;
19221;SDS011;9745;50.828;4.378;2023-06-10T03:39:23;9.80;;;8.00;;
19221;SDS011;9745;50.828;4.378;2023-06-10T03:41:50;10.23;;;7.70;;
19221;SDS011;9745;50.828;4.378;2023-06-10T03:44:16;9.87;;;7.40;;
19221;SDS011;9745;50.828;4.378;2023-06-10T03:46:42;12.33;;;8.07;;
19221;SDS011;9745;50.828;4.378;2023-06-10T03:49:08;9.30;;;7.57;;
19221;SDS011;9745;50.828;4.378;2023-06-10T03:51:35;9.53;;;7.27;;
19221;SDS011;9745;50.828;4.378;2023-06-10T03:54:01;10.53;;;7.37;;
19221;SDS011;9745;50.828;4.378;2023-06-10T03:56:27;11.57;;;8.60;;
19221;SDS011;9745;50.828;4.378;2023-06-10T03:58:53;11.10;;;8.43;;
19221;SDS011;9745;50.828;4.378;2023-06-10T04:01:20;9.50;;;7.43;;
19221;SDS011;9745;50.828;4.378;2023-06-10T04:03:46;10.70;;;7.20;;
19221;SDS011;9745;50.828;4.378;2023-06-10T04:06:14;10.33;;;7.80;;
19221;SDS011;9745;50.828;4.378;2023-06-10T04:08:41;11.47;;;7.60;;
19221;SDS011;9745;50.828;4.378;2023-06-10T04:11:07;9.93;;;7.50;;
19221;SDS011;9745;50.828;4.378;2023-06-10T04:13:33;10.17;;;7.77;;
19221;SDS011;9745;50.828;4.378;2023-06-10T04:15:59;11.13;;;7.60;;
19221;SDS011;9745;50.828;4.378;2023-06-10T04:18:26;10.50;;;7.70;;
19221;SDS011;9745;50.828;4.378;2023-06-10T04:20:52;9.67;;;7.90;;
19221;SDS011;9745;50.828;4.378;2023-06-10T04:23:18;9.17;;;7.30;;
19221;SDS011;9745;50.828;4.378;2023-06-10T04:25:44;10.70;;;7.47;;
19221;SDS011;9745;50.828;4.378;2023-06-10T04:28:10;10.93;;;8.67;;
19221;SDS011;9745;50.828;4.378;2023-06-10T04:30:36;8.57;;;7.63;;
19221;SDS011;9745;50.828;4.378;2023-06-10T04:33:02;12.33;;;8.83;;
19221;SDS011;9745;50.828;4.378;2023-06-10T04:35:28;8.70;;;7.13;;
19221;SDS011;9745;50.828;4.378;2023-06-10T04:37:54;9.40;;;7.20;;
19221;SDS011;9745;50.828;4.378;2023-06-10T04:40:20;11.17;;;8.20;;
19221;SDS011;9745;50.828;4.378;2023-06-10T04:42:46;12.23;;;8.53;;
19221;SDS011;9745;50.828;4.378;2023-06-10T04:45:12;10.90;;;8.03;;
19221;SDS011;9745;50.828;4.378;2023-06-10T04:47:38;10.23;;;8.10;;
19221;SDS011;9745;50.828;4.378;2023-06-10T04:50:04;9.30;;;7.67;;
19221;SDS011;9745;50.828;4.378;2023-06-10T04:52:30;13.43;;;7.90;;
19221;SDS011;9745;50.828;4.378;2023-06-10T04:54:57;11.83;;;8.17;;
19221;SDS011;9745;50.828;4.378;2023-06-10T04:57:23;11.07;;;8.07;;
19221;SDS011;9745;50.828;4.378;2023-06-10T04:59:51;10.77;;;7.53;;
19221;SDS011;9745;50.828;4.378;2023-06-10T05:02:17;11.57;;;8.03;;
19221;SDS011;9745;50.828;4.378;2023-06-10T05:04:43;8.83;;;7.27;;
19221;SDS011;9745;50.828;4.378;2023-06-10T05:07:09;10.00;;;7.63;;
19221;SDS011;9745;50.828;4.378;2023-06-10T05:09:35;13.30;;;8.60;;
19221;SDS011;9745;50.828;4.378;2023-06-10T05:12:01;9.97;;;8.27;;
19221;SDS011;9745;50.828;4.378;2023-06-10T05:14:27;12.87;;;7.60;;
19221;SDS011;9745;50.828;4.378;2023-06-10T05:16:53;9.97;;;8.13;;
19221;SDS011;9745;50.828;4.378;2023-06-10T05:19:19;10.23;;;7.43;;
19221;SDS011;9745;50.828;4.378;2023-06-10T05:21:46;11.57;;;7.77;;
19221;SDS011;9745;50.828;4.378;2023-06-10T05:24:12;9.10;;;7.50;;
19221;SDS011;9745;50.828;4.378;2023-06-10T05:26:38;9.73;;;7.30;;
19221;SDS011;9745;50.828;4.378;2023-06-10T05:29:04;12.40;;;7.73;;
19221;SDS011;9745;50.828;4.378;2023-06-10T05:31:31;12.53;;;7.60;;
19221;SDS011;9745;50.828;4.378;2023-06-10T05:33:57;12.27;;;7.80;;
19221;SDS011;9745;50.828;4.378;2023-06-10T05:36:23;10.73;;;7.70;;
19221;SDS011;9745;50.828;4.378;2023-06-10T05:38:51;10.57;;;7.33;;
19221;SDS011;9745;50.828;4.378;2023-06-10T05:41:17;8.60;;;7.57;;
19221;SDS011;9745;50.828;4.378;2023-06-10T05:43:43;8.47;;;7.40;;
19221;SDS011;9745;50.828;4.378;2023-06-10T05:46:09;10.70;;;7.60;;
19221;SDS011;9745;50.828;4.378;2023-06-10T05:48:35;10.83;;;7.43;;
19221;SDS011;9745;50.828;4.378;2023-06-10T05:51:01;10.67;;;7.77;;
19221;SDS011;9745;50.828;4.378;2023-06-10T05:53:27;10.80;;;7.53;;
19221;SDS011;9745;50.828;4.378;2023-06-10T05:55:53;9.43;;;7.20;;
19221;SDS011;9745;50.828;4.378;2023-06-10T05:58:22;9.17;;;6.80;;
19221;SDS011;9745;50.828;4.378;2023-06-10T06:00:54;10.30;;;7.53;;
19221;SDS011;9745;50.828;4.378;2023-06-10T06:03:26;10.43;;;7.97;;
19221;SDS011;9745;50.828;4.378;2023-06-10T06:05:56;8.20;;;6.90;;
19221;SDS011;9745;50.828;4.378;2023-06-10T06:08:24;13.37;;;6.47;;
19221;SDS011;9745;50.828;4.378;2023-06-10T06:10:50;9.27;;;6.43;;
19221;SDS011;9745;50.828;4.378;2023-06-10T06:13:17;8.97;;;6.60;;
19221;SDS011;9745;50.828;4.378;2023-06-10T06:15:46;8.23;;;6.67;;
19221;SDS011;9745;50.828;4.378;2023-06-10T06:18:12;9.20;;;7.40;;
19221;SDS011;9745;50.828;4.378;2023-06-10T06:20:38;9.53;;;6.67;;
19221;SDS011;9745;50.828;4.378;2023-06-10T06:23:04;8.40;;;6.60;;
19221;SDS011;9745;50.828;4.378;2023-06-10T06:25:30;11.63;;;6.60;;
19221;SDS011;9745;50.828;4.378;2023-06-10T06:27:56;8.57;;;7.07;;
19221;SDS011;9745;50.828;4.378;2023-06-10T06:30:22;8.20;;;6.03;;
19221;SDS011;9745;50.828;4.378;2023-06-10T06:32:48;7.97;;;5.90;;
19221;SDS011;9745;50.828;4.378;2023-06-10T06:35:14;6.93;;;5.83;;
19221;SDS011;9745;50.828;4.378;2023-06-10T06:37:40;8.53;;;6.30;;
19221;SDS011;9745;50.828;4.378;2023-06-10T06:40:06;8.37;;;5.97;;
19221;SDS011;9745;50.828;4.378;2023-06-10T06:42:35;10.15;;;6.43;;
19221;SDS011;9745;50.828;4.378;2023-06-10T06:45:01;10.52;;;6.68;;
19221;SDS011;9745;50.828;4.378;2023-06-10T06:47:27;9.25;;;6.72;;
19221;SDS011;9745;50.828;4.378;2023-06-10T06:49:53;7.50;;;6.20;;
19221;SDS011;9745;50.828;4.378;2023-06-10T06:52:19;7.20;;;5.53;;
19221;SDS011;9745;50.828;4.378;2023-06-10T06:54:47;7.35;;;5.88;;
19221;SDS011;9745;50.828;4.378;2023-06-10T06:57:13;8.32;;;5.88;;
19221;SDS011;9745;50.828;4.378;2023-06-10T06:59:39;6.32;;;5.53;;
19221;SDS011;9745;50.828;4.378;2023-06-10T07:02:05;7.07;;;5.75;;
19221;SDS011;9745;50.828;4.378;2023-06-10T07:04:31;7.68;;;6.07;;
19221;SDS011;9745;50.828;4.378;2023-06-10T07:07:00;7.47;;;5.88;;
19221;SDS011;9745;50.828;4.378;2023-06-10T07:09:26;6.07;;;5.47;;
19221;SDS011;9745;50.828;4.378;2023-06-10T07:11:53;7.00;;;5.35;;
19221;SDS011;9745;50.828;4.378;2023-06-10T07:14:19;8.85;;;5.45;;
19221;SDS011;9745;50.828;4.378;2023-06-10T07:16:45;7.88;;;5.47;;
19221;SDS011;9745;50.828;4.378;2023-06-10T07:19:13;6.05;;;5.38;;
19221;SDS011;9745;50.828;4.378;2023-06-10T07:21:39;7.18;;;5.30;;
19221;SDS011;9745;50.828;4.378;2023-06-10T07:24:05;6.45;;;5.05;;
19221;SDS011;9745;50.828;4.378;2023-06-10T07:26:31;6.65;;;4.97;;
19221;SDS011;9745;50.828;4.378;2023-06-10T07:28:57;6.00;;;5.07;;
19221;SDS011;9745;50.828;4.378;2023-06-10T07:31:23;5.45;;;4.57;;
19221;SDS011;9745;50.828;4.378;2023-06-10T07:33:50;7.18;;;5.07;;
19221;SDS011;9745;50.828;4.378;2023-06-10T07:36:16;7.10;;;5.28;;
19221;SDS011;9745;50.828;4.378;2023-06-10T07:38:42;6.00;;;5.15;;
19221;SDS011;9745;50.828;4.378;2023-06-10T07:41:08;7.53;;;5.05;;
19221;SDS011;9745;50.828;4.378;2023-06-10T07:43:34;5.18;;;4.60;;
19221;SDS011;9745;50.828;4.378;2023-06-10T07:46:00;5.93;;;4.93;;
19221;SDS011;9745;50.828;4.378;2023-06-10T07:48:26;6.28;;;4.95;;
19221;SDS011;9745;50.828;4.378;2023-06-10T07:50:52;6.90;;;4.68;;
19221;SDS011;9745;50.828;4.378;2023-06-10T07:53:18;5.70;;;4.40;;
19221;SDS011;9745;50.828;4.378;2023-06-10T07:55:44;7.93;;;4.55;;
19221;SDS011;9745;50.828;4.378;2023-06-10T07:58:10;5.80;;;4.82;;
19221;SDS011;9745;50.828;4.378;2023-06-10T08:00:39;7.10;;;5.30;;
19221;SDS011;9745;50.828;4.378;2023-06-10T08:03:05;6.97;;;4.53;;
19221;SDS011;9745;50.828;4.378;2023-06-10T08:05:30;5.10;;;4.60;;
19221;SDS011;9745;50.828;4.378;2023-06-10T08:07:57;9.25;;;4.78;;
19221;SDS011;9745;50.828;4.378;2023-06-10T08:10:23;5.75;;;4.40;;
19221;SDS011;9745;50.828;4.378;2023-06-10T08:12:49;7.00;;;4.72;;
19221;SDS011;9745;50.828;4.378;2023-06-10T08:15:15;5.40;;;4.35;;
19221;SDS011;9745;50.828;4.378;2023-06-10T08:17:41;6.35;;;4.38;;
19221;SDS011;9745;50.828;4.378;2023-06-10T08:20:07;5.13;;;4.03;;
19221;SDS011;9745;50.828;4.378;2023-06-10T08:22:33;5.35;;;4.35;;
19221;SDS011;9745;50.828;4.378;2023-06-10T08:24:59;4.63;;;4.20;;
19221;SDS011;9745;50.828;4.378;2023-06-10T08:27:25;6.20;;;4.50;;
19221;SDS011;9745;50.828;4.378;2023-06-10T08:29:51;5.22;;;4.70;;
19221;SDS011;9745;50.828;4.378;2023-06-10T08:32:17;4.80;;;4.40;;
19221;SDS011;9745;50.828;4.378;2023-06-10T08:34:43;7.47;;;4.60;;
19221;SDS011;9745;50.828;4.378;2023-06-10T08:37:12;4.60;;;4.03;;
19221;SDS011;9745;50.828;4.378;2023-06-10T08:39:38;7.30;;;4.00;;
19221;SDS011;9745;50.828;4.378;2023-06-10T08:42:23;4.95;;;4.13;;
19221;SDS011;9745;50.828;4.378;2023-06-10T08:44:54;5.30;;;4.78;;
19221;SDS011;9745;50.828;4.378;2023-06-10T08:47:22;6.38;;;3.95;;
19221;SDS011;9745;50.828;4.378;2023-06-10T08:49:48;6.70;;;4.50;;
19221;SDS011;9745;50.828;4.378;2023-06-10T08:52:15;7.05;;;4.65;;
19221;SDS011;9745;50.828;4.378;2023-06-10T08:54:42;5.40;;;4.10;;
19221;SDS011;9745;50.828;4.378;2023-06-10T08:57:08;5.50;;;4.22;;
19221;SDS011;9745;50.828;4.378;2023-06-10T08:59:35;5.30;;;3.97;;
19221;SDS011;9745;50.828;4.378;2023-06-10T09:02:02;6.00;;;3.95;;
19221;SDS011;9745;50.828;4.378;2023-06-10T09:04:28;4.82;;;4.32;;
19221;SDS011;9745;50.828;4.378;2023-06-10T09:06:54;5.90;;;4.15;;
19221;SDS011;9745;50.828;4.378;2023-06-10T09:09:22;4.80;;;4.30;;
19221;SDS011;9745;50.828;4.378;2023-06-10T09:11:48;4.95;;;3.95;;
19221;SDS011;9745;50.828;4.378;2023-06-10T09:14:14;9.63;;;4.15;;
19221;SDS011;9745;50.828;4.378;2023-06-10T09:16:41;7.80;;;4.28;;
19221;SDS011;9745;50.828;4.378;2023-06-10T09:19:08;5.55;;;4.40;;
19221;SDS011;9745;50.828;4.378;2023-06-10T09:21:34;7.05;;;3.90;;
19221;SDS011;9745;50.828;4.378;2023-06-10T09:24:01;5.13;;;4.53;;
19221;SDS011;9745;50.828;4.378;2023-06-10T09:26:27;5.45;;;4.07;;
19221;SDS011;9745;50.828;4.378;2023-06-10T09:28:57;4.20;;;3.80;;
19221;SDS011;9745;50.828;4.378;2023-06-10T09:31:23;7.88;;;4.20;;
19221;SDS011;9745;50.828;4.378;2023-06-10T09:33:49;6.97;;;4.32;;
19221;SDS011;9745;50.828;4.378;2023-06-10T09:36:22;4.68;;;4.18;;
19221;SDS011;9745;50.828;4.378;2023-06-10T09:38:49;6.32;;;4.53;;
19221;SDS011;9745;50.828;4.378;2023-06-10T09:41:18;4.43;;;3.85;;
19221;SDS011;9745;50.828;4.378;2023-06-10T09:43:45;5.65;;;4.20;;
19221;SDS011;9745;50.828;4.378;2023-06-10T09:46:17;4.07;;;3.75;;
19221;SDS011;9745;50.828;4.378;2023-06-10T09:48:43;3.97;;;3.67;;
19221;SDS011;9745;50.828;4.378;2023-06-10T09:51:10;6.32;;;4.20;;
19221;SDS011;9745;50.828;4.378;2023-06-10T09:53:36;4.53;;;4.00;;
19221;SDS011;9745;50.828;4.378;2023-06-10T09:56:02;4.80;;;4.15;;
19221;SDS011;9745;50.828;4.378;2023-06-10T09:58:35;5.18;;;3.83;;
19221;SDS011;9745;50.828;4.378;2023-06-10T10:01:11;6.75;;;3.92;;
19221;SDS011;9745;50.828;4.378;2023-06-10T10:03:44;4.65;;;4.25;;
19221;SDS011;9745;50.828;4.378;2023-06-10T10:06:11;5.95;;;4.35;;
19221;SDS011;9745;50.828;4.378;2023-06-10T10:08:37;8.05;;;3.80;;
19221;SDS011;9745;50.828;4.378;2023-06-10T10:11:03;5.63;;;3.90;;
19221;SDS011;9745;50.828;4.378;2023-06-10T10:13:29;6.03;;;4.25;;
19221;SDS011;9745;50.828;4.378;2023-06-10T10:15:59;4.57;;;4.07;;
19221;SDS011;9745;50.828;4.378;2023-06-10T10:18:27;4.80;;;4.28;;
19221;SDS011;9745;50.828;4.378;2023-06-10T10:20:55;4.40;;;4.00;;
19221;SDS011;9745;50.828;4.378;2023-06-10T10:23:34;6.07;;;4.63;;
19221;SDS011;9745;50.828;4.378;2023-06-10T10:26:03;9.13;;;4.10;;
19221;SDS011;9745;50.828;4.378;2023-06-10T10:28:34;5.60;;;4.50;;
19221;SDS011;9745;50.828;4.378;2023-06-10T10:31:06;8.80;;;5.20;;
19221;SDS011;9745;50.828;4.378;2023-06-10T10:36:16;9.80;;;4.88;;
19221;SDS011;9745;50.828;4.378;2023-06-10T10:38:44;7.57;;;4.60;;
19221;SDS011;9745;50.828;4.378;2023-06-10T10:41:11;5.53;;;4.68;;
19221;SDS011;9745;50.828;4.378;2023-06-10T10:43:37;7.72;;;5.32;;
19221;SDS011;9745;50.828;4.378;2023-06-10T10:46:14;6.32;;;4.60;;
19221;SDS011;9745;50.828;4.378;2023-06-10T10:48:42;8.43;;;5.00;;
19221;SDS011;9745;50.828;4.378;2023-06-10T10:51:08;5.55;;;4.65;;
19221;SDS011;9745;50.828;4.378;2023-06-10T10:53:36;7.60;;;4.90;;
19221;SDS011;9745;50.828;4.378;2023-06-10T10:56:12;6.50;;;5.20;;
19221;SDS011;9745;50.828;4.378;2023-06-10T10:58:38;5.45;;;4.78;;
19221;SDS011;9745;50.828;4.378;2023-06-10T11:01:11;5.57;;;4.78;;
19221;SDS011;9745;50.828;4.378;2023-06-10T11:03:44;5.82;;;5.20;;
19221;SDS011;9745;50.828;4.378;2023-06-10T11:06:15;6.57;;;4.85;;
19221;SDS011;9745;50.828;4.378;2023-06-10T11:11:23;7.43;;;4.70;;
19221;SDS011;9745;50.828;4.378;2023-06-10T11:16:38;4.85;;;4.10;;
19221;SDS011;9745;50.828;4.378;2023-06-10T11:19:05;8.52;;;4.57;;
19221;SDS011;9745;50.828;4.378;2023-06-10T11:21:31;5.63;;;4.65;;
19221;SDS011;9745;50.828;4.378;2023-06-10T11:24:00;7.22;;;5.20;;
19221;SDS011;9745;50.828;4.378;2023-06-10T11:26:43;5.20;;;4.65;;
19221;SDS011;9745;50.828;4.378;2023-06-10T11:29:09;7.75;;;4.75;;
19221;SDS011;9745;50.828;4.378;2023-06-10T11:31:42;6.68;;;4.90;;
19221;SDS011;9745;50.828;4.378;2023-06-10T11:34:09;6.97;;;4.55;;
19221;SDS011;9745;50.828;4.378;2023-06-10T11:36:41;5.60;;;4.40;;
19221;SDS011;9745;50.828;4.378;2023-06-10T11:39:10;6.13;;;4.55;;
19221;SDS011;9745;50.828;4.378;2023-06-10T11:41:37;5.07;;;4.18;;
19221;SDS011;9745;50.828;4.378;2023-06-10T11:46:35;6.25;;;4.80;;
19221;SDS011;9745;50.828;4.378;2023-06-10T11:49:02;6.43;;;5.18;;
19221;SDS011;9745;50.828;4.378;2023-06-10T11:51:29;9.18;;;4.82;;
19221;SDS011;9745;50.828;4.378;2023-06-10T11:53:55;7.15;;;5.20;;
19221;SDS011;9745;50.828;4.378;2023-06-10T11:56:25;5.57;;;4.40;;
19221;SDS011;9745;50.828;4.378;2023-06-10T11:58:55;15.60;;;5.10;;
19221;SDS011;9745;50.828;4.378;2023-06-10T12:01:22;6.63;;;5.28;;
19221;SDS011;9745;50.828;4.378;2023-06-10T12:03:58;5.60;;;4.57;;
19221;SDS011;9745;50.828;4.378;2023-06-10T12:06:25;6.22;;;5.40;;
19221;SDS011;9745;50.828;4.378;2023-06-10T12:08:51;7.20;;;4.90;;
19221;SDS011;9745;50.828;4.378;2023-06-10T12:11:17;8.77;;;5.65;;
19221;SDS011;9745;50.828;4.378;2023-06-10T12:13:46;7.22;;;5.50;;
19221;SDS011;9745;50.828;4.378;2023-06-10T12:16:16;5.68;;;4.88;;
19221;SDS011;9745;50.828;4.378;2023-06-10T12:18:45;7.70;;;4.68;;
19221;SDS011;9745;50.828;4.378;2023-06-10T12:21:19;6.03;;;4.85;;
19221;SDS011;9745;50.828;4.378;2023-06-10T12:26:42;10.85;;;5.22;;
19221;SDS011;9745;50.828;4.378;2023-06-10T12:31:51;8.48;;;5.20;;
19221;SDS011;9745;50.828;4.378;2023-06-10T12:34:17;7.78;;;5.25;;
19221;SDS011;9745;50.828;4.378;2023-06-10T12:36:48;6.53;;;5.07;;
19221;SDS011;9745;50.828;4.378;2023-06-10T12:39:14;5.72;;;5.15;;
19221;SDS011;9745;50.828;4.378;2023-06-10T12:41:40;6.95;;;5.30;;
19221;SDS011;9745;50.828;4.378;2023-06-10T12:44:06;7.63;;;5.57;;
19221;SDS011;9745;50.828;4.378;2023-06-10T12:46:36;7.40;;;5.35;;
19221;SDS011;9745;50.828;4.378;2023-06-10T12:49:02;6.88;;;5.43;;
19221;SDS011;9745;50.828;4.378;2023-06-10T12:51:28;6.05;;;4.95;;
19221;SDS011;9745;50.828;4.378;2023-06-10T12:53:54;5.80;;;5.10;;
19221;SDS011;9745;50.828;4.378;2023-06-10T12:56:20;6.63;;;4.75;;
19221;SDS011;9745;50.828;4.378;2023-06-10T12:58:47;7.38;;;5.30;;
19221;SDS011;9745;50.828;4.378;2023-06-10T13:01:13;6.32;;;5.00;;
19221;SDS011;9745;50.828;4.378;2023-06-10T13:03:39;6.88;;;5.20;;
19221;SDS011;9745;50.828;4.378;2023-06-10T13:06:05;6.93;;;5.03;;
19221;SDS011;9745;50.828;4.378;2023-06-10T13:08:31;8.23;;;4.97;;
19221;SDS011;9745;50.828;4.378;2023-06-10T13:10:58;5.70;;;5.07;;
19221;SDS011;9745;50.828;4.378;2023-06-10T13:13:24;6.35;;;5.05;;
19221;SDS011;9745;50.828;4.378;2023-06-10T13:15:50;5.60;;;5.07;;
19221;SDS011;9745;50.828;4.378;2023-06-10T13:18:16;7.75;;;5.47;;
19221;SDS011;9745;50.828;4.378;2023-06-10T13:20:43;7.20;;;5.28;;
19221;SDS011;9745;50.828;4.378;2023-06-10T13:23:10;6.22;;;5.43;;
19221;SDS011;9745;50.828;4.378;2023-06-10T13:25:36;7.50;;;5.70;;
19221;SDS011;9745;50.828;4.378;2023-06-10T13:28:02;8.15;;;5.35;;
19221;SDS011;9745;50.828;4.378;2023-06-10T13:30:28;6.50;;;5.18;;
19221;SDS011;9745;50.828;4.378;2023-06-10T13:32:54;5.47;;;4.97;;
19221;SDS011;9745;50.828;4.378;2023-06-10T13:35:20;5.35;;;4.85;;
19221;SDS011;9745;50.828;4.378;2023-06-10T13:37:46;8.80;;;5.22;;
19221;SDS011;9745;50.828;4.378;2023-06-10T13:40:12;8.63;;;5.72;;
19221;SDS011;9745;50.828;4.378;2023-06-10T13:42:38;5.93;;;5.28;;
19221;SDS011;9745;50.828;4.378;2023-06-10T13:45:04;6.93;;;5.38;;
19221;SDS011;9745;50.828;4.378;2023-06-10T13:47:31;7.75;;;5.03;;
19221;SDS011;9745;50.828;4.378;2023-06-10T13:49:57;6.20;;;4.80;;
19221;SDS011;9745;50.828;4.378;2023-06-10T13:52:23;6.63;;;5.38;;
19221;SDS011;9745;50.828;4.378;2023-06-10T13:54:49;6.03;;;5.03;;
19221;SDS011;9745;50.828;4.378;2023-06-10T13:57:15;6.75;;;5.70;;
19221;SDS011;9745;50.828;4.378;2023-06-10T13:59:41;9.20;;;5.40;;
19221;SDS011;9745;50.828;4.378;2023-06-10T14:02:07;6.13;;;5.10;;
19221;SDS011;9745;50.828;4.378;2023-06-10T14:04:34;8.40;;;4.93;;
19221;SDS011;9745;50.828;4.378;2023-06-10T14:07:00;9.13;;;5.40;;
19221;SDS011;9745;50.828;4.378;2023-06-10T14:09:26;8.00;;;5.22;;
19221;SDS011;9745;50.828;4.378;2023-06-10T14:11:52;7.18;;;4.95;;
19221;SDS011;9745;50.828;4.378;2023-06-10T14:14:19;8.85;;;5.40;;
19221;SDS011;9745;50.828;4.378;2023-06-10T14:16:45;6.70;;;5.03;;
19221;SDS011;9745;50.828;4.378;2023-06-10T14:19:11;7.47;;;5.00;;
19221;SDS011;9745;50.828;4.378;2023-06-10T14:21:37;7.68;;;5.57;;
19221;SDS011;9745;50.828;4.378;2023-06-10T14:24:03;8.32;;;4.97;;
19221;SDS011;9745;50.828;4.378;2023-06-10T14:26:29;8.13;;;5.40;;
19221;SDS011;9745;50.828;4.378;2023-06-10T14:28:56;7.93;;;4.95;;
19221;SDS011;9745;50.828;4.378;2023-06-10T14:31:22;7.72;;;5.50;;
19221;SDS011;9745;50.828;4.378;2023-06-10T14:33:48;10.75;;;5.80;;
19221;SDS011;9745;50.828;4.378;2023-06-10T14:36:14;8.80;;;5.60;;
19221;SDS011;9745;50.828;4.378;2023-06-10T14:38:41;7.22;;;5.30;;
19221;SDS011;9745;50.828;4.378;2023-06-10T14:41:07;7.22;;;5.13;;
19221;SDS011;9745;50.828;4.378;2023-06-10T14:43:33;8.07;;;5.20;;
19221;SDS011;9745;50.828;4.378;2023-06-10T14:45:59;9.80;;;5.97;;
19221;SDS011;9745;50.828;4.378;2023-06-10T14:48:25;6.38;;;5.45;;
19221;SDS011;9745;50.828;4.378;2023-06-10T14:50:51;9.38;;;5.40;;
19221;SDS011;9745;50.828;4.378;2023-06-10T14:53:17;8.15;;;5.55;;
19221;SDS011;9745;50.828;4.378;2023-06-10T14:55:43;7.30;;;5.03;;
19221;SDS011;9745;50.828;4.378;2023-06-10T14:58:09;7.22;;;5.10;;
19221;SDS011;9745;50.828;4.378;2023-06-10T15:00:35;8.48;;;5.50;;
19221;SDS011;9745;50.828;4.378;2023-06-10T15:03:01;6.30;;;5.15;;
19221;SDS011;9745;50.828;4.378;2023-06-10T15:05:27;8.60;;;5.50;;
19221;SDS011;9745;50.828;4.378;2023-06-10T15:07:53;7.32;;;4.85;;
19221;SDS011;9745;50.828;4.378;2023-06-10T15:10:19;14.10;;;6.13;;
19221;SDS011;9745;50.828;4.378;2023-06-10T15:12:46;5.97;;;5.13;;
19221;SDS011;9745;50.828;4.378;2023-06-10T15:15:12;7.28;;;5.10;;
19221;SDS011;9745;50.828;4.378;2023-06-10T15:17:38;7.95;;;5.20;;
19221;SDS011;9745;50.828;4.378;2023-06-10T15:20:04;6.47;;;5.20;;